createdAt,value
2018-05-27T00:01:02.174Z,99.90
2018-05-27T00:03:29.102Z,99.90
2018-05-27T00:05:56.094Z,99.90
2018-05-27T00:08:22.946Z,99.90
2018-05-27T00:10:49.947Z,99.90
2018-05-27T00:13:16.818Z,99.90
2018-05-27T00:15:43.773Z,99.90
2018-05-27T00:18:10.695Z,99.90
2018-05-27T00:20:37.627Z,99.90
2018-05-27T00:23:04.498Z,99.90
2018-05-27T00:25:31.437Z,99.90
2018-05-27T00:27:58.283Z,99.90
2018-05-27T00:30:25.140Z,99.90
2018-05-27T00:32:52.063Z,99.90
2018-05-27T00:35:18.916Z,99.90
2018-05-27T00:37:45.845Z,99.90
2018-05-27T00:40:12.722Z,99.90
2018-05-27T00:42:39.648Z,99.90
2018-05-27T00:45:06.535Z,99.90
2018-05-27T00:47:33.480Z,99.90
2018-05-27T00:50:00.331Z,99.90
2018-05-27T00:52:27.174Z,99.90
2018-05-27T00:54:54.113Z,99.90
2018-05-27T00:57:20.984Z,99.90
2018-05-27T00:59:48.685Z,99.90
2018-05-27T01:02:15.609Z,99.90
2018-05-27T01:04:42.468Z,99.90
2018-05-27T01:07:09.316Z,99.90
2018-05-27T01:09:36.240Z,99.90
2018-05-27T01:12:03.901Z,99.90
2018-05-27T01:14:31.554Z,99.90
2018-05-27T01:16:59.164Z,99.90
2018-05-27T01:19:26.145Z,99.90
2018-05-27T01:21:53.006Z,99.90
2018-05-27T01:24:20.677Z,99.90
2018-05-27T01:26:48.385Z,99.90
2018-05-27T01:29:15.260Z,99.90
2018-05-27T01:31:42.186Z,99.90
2018-05-27T01:34:09.065Z,99.90
2018-05-27T01:36:36.736Z,99.90
2018-05-27T01:39:03.753Z,99.90
2018-05-27T01:41:30.692Z,99.90
2018-05-27T01:43:57.562Z,99.90
2018-05-27T01:46:25.229Z,99.90
2018-05-27T01:48:53.011Z,99.90
2018-05-27T01:51:19.951Z,99.90
2018-05-27T01:53:47.615Z,99.90
2018-05-27T01:56:14.525Z,99.90
2018-05-27T01:58:41.380Z,99.90
2018-05-27T02:01:08.289Z,99.90
2018-05-27T02:03:35.161Z,99.90
2018-05-27T02:06:02.021Z,99.90
2018-05-27T02:08:29.084Z,99.90
2018-05-27T02:10:56.813Z,99.90
2018-05-27T02:13:23.656Z,99.90
2018-05-27T02:15:50.584Z,99.90
2018-05-27T02:18:17.464Z,99.90
2018-05-27T02:20:44.446Z,99.90
2018-05-27T02:23:11.299Z,99.90
2018-05-27T02:25:38.229Z,99.90
2018-05-27T02:28:05.085Z,99.90
2018-05-27T02:30:32.010Z,99.90
2018-05-27T02:32:59.702Z,99.90
2018-05-27T02:35:26.637Z,99.90
2018-05-27T02:37:53.509Z,99.90
2018-05-27T02:40:20.427Z,99.90
2018-05-27T02:42:47.379Z,99.90
2018-05-27T02:45:14.310Z,99.90
2018-05-27T02:47:41.170Z,99.90
2018-05-27T02:50:08.107Z,99.90
2018-05-27T02:52:34.967Z,99.90
2018-05-27T02:55:01.897Z,99.90
2018-05-27T02:57:28.784Z,99.90
2018-05-27T02:59:55.754Z,99.90
2018-05-27T03:02:22.621Z,99.90
2018-05-27T03:04:49.607Z,99.90
2018-05-27T03:07:16.486Z,99.90
2018-05-27T03:09:43.409Z,99.90
2018-05-27T03:12:10.340Z,99.90
2018-05-27T03:14:37.294Z,99.90
2018-05-27T03:17:04.166Z,99.90
2018-05-27T03:19:31.381Z,99.90
2018-05-27T03:21:58.332Z,99.90
2018-05-27T03:24:25.180Z,99.90
2018-05-27T03:26:52.024Z,99.90
2018-05-27T03:29:18.928Z,99.90
2018-05-27T03:31:45.780Z,99.90
2018-05-27T03:34:12.717Z,99.90
2018-05-27T03:36:39.655Z,99.90
2018-05-27T03:39:07.375Z,99.90
2018-05-27T03:41:34.316Z,99.90
2018-05-27T03:44:01.211Z,99.90
2018-05-27T03:46:28.941Z,99.90
2018-05-27T03:48:55.850Z,99.90
2018-05-27T03:51:22.702Z,99.90
2018-05-27T03:53:49.670Z,99.90
2018-05-27T03:56:16.575Z,99.90
2018-05-27T03:58:43.438Z,99.90
2018-05-27T04:01:10.390Z,99.90
2018-05-27T04:03:37.256Z,99.90
2018-05-27T04:06:16.359Z,99.90
2018-05-27T04:08:43.308Z,99.90
2018-05-27T04:11:12.812Z,99.90
2018-05-27T04:13:40.472Z,99.90
2018-05-27T04:16:07.413Z,99.90
2018-05-27T04:18:34.492Z,99.90
2018-05-27T04:21:02.028Z,99.90
2018-05-27T04:23:28.966Z,99.90
2018-05-27T04:25:56.284Z,99.90
2018-05-27T04:28:36.671Z,99.90
2018-05-27T04:31:04.069Z,99.90
2018-05-27T04:33:30.933Z,99.90
2018-05-27T04:35:57.882Z,99.90
2018-05-27T04:38:24.833Z,99.90
2018-05-27T04:41:05.644Z,99.90
2018-05-27T04:43:34.114Z,99.90
2018-05-27T04:46:01.057Z,99.90
2018-05-27T04:49:35.484Z,99.90
2018-05-27T04:52:03.285Z,99.90
2018-05-27T04:54:30.148Z,99.90
2018-05-27T04:56:57.094Z,99.90
2018-05-27T04:59:23.978Z,99.90
2018-05-27T05:01:51.644Z,99.90
2018-05-27T05:04:19.254Z,99.90
2018-05-27T05:06:46.255Z,99.90
2018-05-27T05:09:13.332Z,99.90
2018-05-27T05:11:54.076Z,99.90
2018-05-27T05:14:34.900Z,99.90
2018-05-27T05:19:59.906Z,99.90
2018-05-27T05:22:27.754Z,99.90
2018-05-27T05:24:54.641Z,99.90
2018-05-27T05:27:21.650Z,99.90
2018-05-27T05:29:48.513Z,99.90
2018-05-27T05:32:15.393Z,99.90
2018-05-27T05:34:42.320Z,99.90
2018-05-27T05:37:09.184Z,99.90
2018-05-27T05:39:36.119Z,99.90
2018-05-27T05:42:03.045Z,99.90
2018-05-27T05:44:29.892Z,99.90
2018-05-27T05:46:56.829Z,99.90
2018-05-27T05:49:23.783Z,99.90
2018-05-27T05:51:51.505Z,99.90
2018-05-27T05:54:18.385Z,99.90
2018-05-27T05:56:45.336Z,99.90
2018-05-27T05:59:12.288Z,99.90
2018-05-27T06:01:40.057Z,99.90
2018-05-27T06:04:06.966Z,99.90
2018-05-27T06:06:33.837Z,99.90
2018-05-27T06:09:00.764Z,99.90
2018-05-27T06:11:34.623Z,99.90
2018-05-27T06:14:01.544Z,99.90
2018-05-27T06:16:28.496Z,99.90
2018-05-27T06:18:55.433Z,99.90
2018-05-27T06:21:22.369Z,99.90
2018-05-27T06:23:49.317Z,99.90
2018-05-27T06:26:16.225Z,99.90
2018-05-27T06:28:43.108Z,99.90
2018-05-27T06:31:10.099Z,99.90
2018-05-27T06:33:37.065Z,99.90
2018-05-27T06:36:03.955Z,99.90
2018-05-27T06:38:30.922Z,99.90
2018-05-27T06:40:57.792Z,99.90
2018-05-27T06:43:24.661Z,99.90
2018-05-27T06:45:51.617Z,99.90
2018-05-27T06:48:18.498Z,99.90
2018-05-27T06:50:45.449Z,99.90
2018-05-27T06:53:12.366Z,99.90
2018-05-27T06:55:39.301Z,99.90
2018-05-27T06:58:06.220Z,99.90
2018-05-27T07:00:33.187Z,99.90
2018-05-27T07:03:00.069Z,99.90
2018-05-27T07:05:26.977Z,99.90
2018-05-27T07:07:53.916Z,99.90
2018-05-27T07:10:20.763Z,99.90
2018-05-27T07:12:47.676Z,99.90
2018-05-27T07:15:14.758Z,99.90
2018-05-27T07:17:41.726Z,99.90
2018-05-27T07:20:08.676Z,99.90
2018-05-27T07:22:35.580Z,99.90
2018-05-27T07:25:09.698Z,99.90
2018-05-27T07:27:36.655Z,99.90
2018-05-27T07:30:06.187Z,99.90
2018-05-27T07:32:33.907Z,99.90
2018-05-27T07:35:00.820Z,99.90
2018-05-27T07:37:39.914Z,99.90
2018-05-27T07:40:19.126Z,99.90
2018-05-27T07:42:58.865Z,99.90
2018-05-27T07:45:40.689Z,99.90
2018-05-27T07:48:09.182Z,99.90
2018-05-27T07:50:50.619Z,99.90
2018-05-27T07:53:31.085Z,99.90
2018-05-27T07:56:09.150Z,99.90
2018-05-27T08:01:31.538Z,99.90
2018-05-27T08:04:13.290Z,99.90
2018-05-27T08:06:51.562Z,99.90
2018-05-27T08:09:32.592Z,99.90
2018-05-27T08:12:13.038Z,99.90
2018-05-27T08:14:52.976Z,99.90
2018-05-27T08:17:33.171Z,99.90
2018-05-27T08:20:12.946Z,99.90
2018-05-27T08:22:50.533Z,99.90
2018-05-27T08:25:27.169Z,99.90
2018-05-27T08:28:01.686Z,99.90
2018-05-27T08:30:41.159Z,99.90
2018-05-27T08:33:23.241Z,99.90
2018-05-27T08:36:01.911Z,98.20
2018-05-27T08:38:30.142Z,94.40
2018-05-27T08:41:10.171Z,93.30
2018-05-27T08:43:49.584Z,92.10
2018-05-27T08:46:18.358Z,89.40
2018-05-27T08:48:58.277Z,85.10
2018-05-27T08:51:38.880Z,84.40
2018-05-27T08:54:18.679Z,80.00
2018-05-27T08:56:54.826Z,82.90
2018-05-27T08:59:33.505Z,82.90
2018-05-27T09:02:13.201Z,81.80
2018-05-27T09:04:54.953Z,81.70
2018-05-27T09:07:34.687Z,83.10
2018-05-27T09:10:14.301Z,85.40
2018-05-27T09:12:52.758Z,84.50
2018-05-27T09:18:15.313Z,84.20
2018-05-27T09:20:56.590Z,85.80
2018-05-27T09:26:20.191Z,87.20
2018-05-27T09:29:00.781Z,87.10
2018-05-27T09:31:43.910Z,86.00
2018-05-27T09:34:28.664Z,88.60
2018-05-27T09:37:08.325Z,88.60
2018-05-27T09:39:49.399Z,87.80
2018-05-27T09:42:31.157Z,90.00
2018-05-27T09:45:08.846Z,87.40
2018-05-27T09:47:49.833Z,85.00
2018-05-27T09:50:28.830Z,84.90
2018-05-27T09:52:57.660Z,86.30
2018-05-27T09:55:36.100Z,85.10
2018-05-27T09:58:15.562Z,82.80
2018-05-27T10:00:56.064Z,84.30
2018-05-27T10:03:37.960Z,82.50
2018-05-27T10:06:18.573Z,82.70
2018-05-27T10:08:56.300Z,83.00
2018-05-27T10:11:37.700Z,83.50
2018-05-27T10:14:17.863Z,83.30
2018-05-27T10:16:56.141Z,82.40
2018-05-27T10:19:34.806Z,82.70
2018-05-27T10:22:18.230Z,83.30
2018-05-27T10:24:59.782Z,83.30
2018-05-27T10:27:38.855Z,78.80
2018-05-27T10:30:16.924Z,78.00
2018-05-27T10:32:54.722Z,81.30
2018-05-27T10:35:37.506Z,78.30
2018-05-27T10:41:08.045Z,79.70
2018-05-27T10:49:13.505Z,78.10
2018-05-27T10:51:41.398Z,73.00
2018-05-27T10:54:22.668Z,75.00
2018-05-27T10:57:03.475Z,73.20
2018-05-27T10:59:42.789Z,71.00
2018-05-27T11:05:12.283Z,75.70
2018-05-27T11:07:54.121Z,74.10
2018-05-27T11:10:36.559Z,74.00
2018-05-27T11:13:18.773Z,74.10
2018-05-27T11:18:43.578Z,71.30
2018-05-27T11:21:23.639Z,73.30
2018-05-27T11:29:23.787Z,77.70
2018-05-27T11:32:08.741Z,76.30
2018-05-27T11:34:47.472Z,78.90
2018-05-27T11:37:24.838Z,76.70
2018-05-27T11:40:01.575Z,79.10
2018-05-27T11:42:38.237Z,77.80
2018-05-27T11:45:17.178Z,77.20
2018-05-27T11:47:55.620Z,78.50
2018-05-27T11:50:33.466Z,79.10
2018-05-27T11:53:14.002Z,79.00
2018-05-27T11:55:50.191Z,77.60
2018-05-27T11:58:19.096Z,73.90
2018-05-27T12:00:57.245Z,73.80
2018-05-27T12:03:36.729Z,73.80
2018-05-27T12:06:05.346Z,72.90
2018-05-27T12:08:43.102Z,73.00
2018-05-27T12:11:23.385Z,74.60
2018-05-27T12:14:05.874Z,73.50
2018-05-27T12:16:34.599Z,73.50
2018-05-27T12:19:03.115Z,74.50
2018-05-27T12:21:44.293Z,70.90
2018-05-27T12:24:27.469Z,71.00
2018-05-27T12:27:08.903Z,69.40
2018-05-27T12:29:46.958Z,70.40
2018-05-27T12:32:23.408Z,67.80
2018-05-27T12:35:01.442Z,68.90
2018-05-27T12:37:38.245Z,70.70
2018-05-27T12:40:05.593Z,71.20
2018-05-27T12:42:32.477Z,68.10
2018-05-27T12:44:59.425Z,72.70
2018-05-27T12:47:29.333Z,69.50
2018-05-27T12:49:57.773Z,72.50
2018-05-27T12:52:24.977Z,71.70
2018-05-27T12:54:54.132Z,72.20
2018-05-27T12:57:21.542Z,70.10
2018-05-27T12:59:48.566Z,71.00
2018-05-27T13:02:16.388Z,70.10
2018-05-27T13:04:45.017Z,70.00
2018-05-27T13:07:12.293Z,72.40
2018-05-27T13:09:41.371Z,72.50
2018-05-27T13:12:10.711Z,72.20
2018-05-27T13:14:38.028Z,72.50
2018-05-27T13:17:05.420Z,73.20
2018-05-27T13:19:32.348Z,71.90
2018-05-27T13:22:02.716Z,73.90
2018-05-27T13:24:31.028Z,71.70
2018-05-27T13:26:57.902Z,71.80
2018-05-27T13:29:24.846Z,71.60
2018-05-27T13:31:51.822Z,68.30
2018-05-27T13:34:18.709Z,70.60
2018-05-27T13:36:45.685Z,67.50
2018-05-27T13:39:12.686Z,68.30
2018-05-27T13:41:39.630Z,69.00
2018-05-27T13:44:06.540Z,67.40
2018-05-27T13:46:33.521Z,69.70
2018-05-27T13:49:00.398Z,71.00
2018-05-27T13:51:28.885Z,71.70
2018-05-27T13:53:56.616Z,71.60
2018-05-27T13:56:25.738Z,76.50
2018-05-27T13:58:52.827Z,76.50
2018-05-27T14:01:19.717Z,77.00
2018-05-27T14:03:49.032Z,80.80
2018-05-27T14:06:16.000Z,80.20
2018-05-27T14:08:43.821Z,81.20
2018-05-27T14:11:10.710Z,81.50
2018-05-27T14:13:37.651Z,82.00
2018-05-27T14:16:05.310Z,82.90
2018-05-27T14:18:32.180Z,83.80
2018-05-27T14:21:00.480Z,85.40
2018-05-27T14:23:29.364Z,83.20
2018-05-27T14:25:56.305Z,83.50
2018-05-27T14:28:23.530Z,85.60
2018-05-27T14:30:50.518Z,84.20
2018-05-27T14:33:17.410Z,83.90
2018-05-27T14:35:44.804Z,84.40
2018-05-27T14:38:13.944Z,83.50
2018-05-27T14:40:51.026Z,82.30
2018-05-27T14:43:20.476Z,82.70
2018-05-27T14:45:53.331Z,82.70
2018-05-27T14:48:20.190Z,84.30
2018-05-27T14:50:47.675Z,80.90
2018-05-27T14:53:20.152Z,82.30
2018-05-27T14:55:51.427Z,82.30
2018-05-27T14:58:18.296Z,84.80
2018-05-27T15:00:50.071Z,84.40
2018-05-27T15:03:17.340Z,84.40
2018-05-27T15:05:54.241Z,82.00
2018-05-27T15:08:25.396Z,85.70
2018-05-27T15:10:52.310Z,85.70
2018-05-27T15:13:24.822Z,84.10
2018-05-27T15:15:56.828Z,86.30
2018-05-27T15:18:28.776Z,90.20
2018-05-27T15:20:57.771Z,90.30
2018-05-27T15:23:30.090Z,91.40
2018-05-27T15:25:57.158Z,91.30
2018-05-27T15:28:24.183Z,91.90
2018-05-27T15:30:51.089Z,93.50
2018-05-27T15:33:18.052Z,93.90
2018-05-27T15:35:46.274Z,93.40
2018-05-27T15:38:13.319Z,94.10
2018-05-27T15:40:53.770Z,94.20
2018-05-27T15:43:21.094Z,94.20
2018-05-27T15:45:48.185Z,95.70
2018-05-27T15:48:15.158Z,95.50
2018-05-27T15:50:42.918Z,96.70
2018-05-27T15:53:10.698Z,96.60
2018-05-27T15:55:38.378Z,97.10
2018-05-27T15:58:05.425Z,97.10
2018-05-27T16:00:32.376Z,99.90
2018-05-27T16:02:59.332Z,99.90
2018-05-27T16:05:26.409Z,99.90
2018-05-27T16:07:53.403Z,99.90
2018-05-27T16:10:20.321Z,99.90
2018-05-27T16:12:47.322Z,99.90
2018-05-27T16:15:15.636Z,99.90
2018-05-27T16:17:42.874Z,99.90
2018-05-27T16:20:09.770Z,99.90
2018-05-27T16:22:36.830Z,99.90
2018-05-27T16:25:03.905Z,99.90
2018-05-27T16:27:30.869Z,99.90
2018-05-27T16:29:58.038Z,99.90
2018-05-27T16:32:24.941Z,99.90
2018-05-27T16:34:51.924Z,99.90
2018-05-27T16:37:18.834Z,99.90
2018-05-27T16:39:45.785Z,99.90
2018-05-27T16:42:12.752Z,99.90
2018-05-27T16:44:39.754Z,99.90
2018-05-27T16:47:06.646Z,99.90
2018-05-27T16:49:33.701Z,99.90
2018-05-27T16:52:02.100Z,99.90
2018-05-27T16:54:29.177Z,99.90
2018-05-27T16:56:56.125Z,99.90
2018-05-27T16:59:24.160Z,99.90
2018-05-27T17:01:52.048Z,99.90
2018-05-27T17:04:21.989Z,99.90
2018-05-27T17:06:51.943Z,99.90
2018-05-27T17:09:18.937Z,99.90
2018-05-27T17:11:46.012Z,99.90
2018-05-27T17:14:12.956Z,99.90
2018-05-27T17:16:39.939Z,99.90
2018-05-27T17:19:06.916Z,99.90
2018-05-27T17:21:35.071Z,99.90
2018-05-27T17:24:02.275Z,99.90
2018-05-27T17:26:29.313Z,99.90
2018-05-27T17:28:56.269Z,99.90
2018-05-27T17:31:23.388Z,99.90
2018-05-27T17:33:50.721Z,99.90
2018-05-27T17:36:17.692Z,99.90
2018-05-27T17:38:45.365Z,99.90
2018-05-27T17:41:12.367Z,99.90
2018-05-27T17:43:39.293Z,99.90
2018-05-27T17:46:06.249Z,99.90
2018-05-27T17:48:33.263Z,99.90
2018-05-27T17:51:00.187Z,99.90
2018-05-27T17:53:27.166Z,99.90
2018-05-27T17:55:54.128Z,99.90
2018-05-27T17:58:21.093Z,99.90
2018-05-27T18:00:48.042Z,99.90
2018-05-27T18:03:14.954Z,99.90
2018-05-27T18:05:42.011Z,99.90
2018-05-27T18:08:08.951Z,99.90
2018-05-27T18:10:35.943Z,99.90
2018-05-27T18:13:03.648Z,99.90
2018-05-27T18:15:30.661Z,99.90
2018-05-27T18:17:58.349Z,99.90
2018-05-27T18:20:25.244Z,99.90
2018-05-27T18:22:52.267Z,99.90
2018-05-27T18:25:19.160Z,99.90
2018-05-27T18:27:46.204Z,99.90
2018-05-27T18:30:13.145Z,99.90
2018-05-27T18:32:40.173Z,99.90
2018-05-27T18:35:07.166Z,99.90
2018-05-27T18:37:34.840Z,99.90
2018-05-27T18:40:01.852Z,99.90
2018-05-27T18:42:28.724Z,99.90
2018-05-27T18:44:55.618Z,99.90
2018-05-27T18:47:22.568Z,99.90
2018-05-27T18:49:49.536Z,99.90
2018-05-27T18:52:17.253Z,99.90
2018-05-27T18:54:44.229Z,99.90
2018-05-27T18:57:11.255Z,99.90
2018-05-27T18:59:38.163Z,99.90
2018-05-27T19:02:05.186Z,99.90
2018-05-27T19:04:42.088Z,99.90
2018-05-27T19:07:09.155Z,99.90
2018-05-27T19:09:36.086Z,99.90
2018-05-27T19:12:02.990Z,99.90
2018-05-27T19:14:29.947Z,99.90
2018-05-27T19:16:56.825Z,99.90
2018-05-27T19:19:23.824Z,99.90
2018-05-27T19:21:50.696Z,99.90
2018-05-27T19:24:17.655Z,99.90
2018-05-27T19:26:45.341Z,99.90
2018-05-27T19:29:12.204Z,99.90
2018-05-27T19:31:39.178Z,99.90
2018-05-27T19:34:06.089Z,99.90
2018-05-27T19:36:33.088Z,99.90
2018-05-27T19:39:00.768Z,99.90
2018-05-27T19:41:28.474Z,99.90
2018-05-27T19:43:55.410Z,99.90
2018-05-27T19:46:22.383Z,99.90
2018-05-27T19:48:49.260Z,99.90
2018-05-27T19:51:17.000Z,99.90
2018-05-27T19:53:43.967Z,99.90
2018-05-27T19:56:11.814Z,99.90
2018-05-27T19:58:38.778Z,99.90
2018-05-27T20:01:09.400Z,99.90
2018-05-27T20:03:36.325Z,99.90
2018-05-27T20:06:03.357Z,99.90
2018-05-27T20:08:33.303Z,99.90
2018-05-27T20:11:00.318Z,99.90
2018-05-27T20:13:27.181Z,99.90
2018-05-27T20:15:54.169Z,99.90
2018-05-27T20:18:21.808Z,99.90
2018-05-27T20:20:48.933Z,99.90
2018-05-27T20:23:16.274Z,99.90
2018-05-27T20:25:43.326Z,99.90
2018-05-27T20:28:11.118Z,99.90
2018-05-27T20:30:38.062Z,99.90
2018-05-27T20:33:05.117Z,99.90
2018-05-27T20:35:32.756Z,99.90
2018-05-27T20:38:00.136Z,99.90
2018-05-27T20:40:27.117Z,99.90
2018-05-27T20:42:55.510Z,99.90
2018-05-27T20:45:22.433Z,99.90
2018-05-27T20:47:50.130Z,99.90
2018-05-27T20:50:17.219Z,99.90
2018-05-27T20:52:52.050Z,99.90
2018-05-27T20:55:19.148Z,99.90
2018-05-27T20:57:46.073Z,99.90
2018-05-27T21:00:12.966Z,99.90
2018-05-27T21:02:40.688Z,99.90
2018-05-27T21:05:07.603Z,99.90
2018-05-27T21:07:34.535Z,99.90
2018-05-27T21:10:01.534Z,99.90
2018-05-27T21:12:28.393Z,99.90
2018-05-27T21:14:55.282Z,99.90
2018-05-27T21:17:22.372Z,99.90
2018-05-27T21:19:49.303Z,99.90
2018-05-27T21:22:16.995Z,99.90
2018-05-27T21:24:43.954Z,99.90
2018-05-27T21:27:10.915Z,99.90
2018-05-27T21:29:37.865Z,99.90
2018-05-27T21:32:04.741Z,99.90
2018-05-27T21:34:32.819Z,99.90
2018-05-27T21:37:00.645Z,99.90
2018-05-27T21:39:27.835Z,99.90
2018-05-27T21:41:55.520Z,99.90
2018-05-27T21:44:22.395Z,99.90
2018-05-27T21:46:49.270Z,99.90
2018-05-27T21:49:16.221Z,99.90
2018-05-27T21:51:43.092Z,99.90
2018-05-27T21:54:10.796Z,99.90
2018-05-27T21:56:38.662Z,99.90
2018-05-27T21:59:05.628Z,99.90
2018-05-27T22:01:32.501Z,99.90
2018-05-27T22:04:00.480Z,99.90
2018-05-27T22:06:28.162Z,99.90
2018-05-27T22:08:55.127Z,99.90
2018-05-27T22:11:22.007Z,99.90
2018-05-27T22:13:48.886Z,99.90
2018-05-27T22:16:15.960Z,99.90
2018-05-27T22:18:42.853Z,99.90
2018-05-27T22:21:10.135Z,99.90
2018-05-27T22:23:37.079Z,99.90
2018-05-27T22:26:04.041Z,99.90
2018-05-27T22:28:30.987Z,99.90
2018-05-27T22:30:57.880Z,99.90
2018-05-27T22:33:24.764Z,99.90
2018-05-27T22:35:51.700Z,99.90
2018-05-27T22:38:18.692Z,99.90
2018-05-27T22:40:45.648Z,99.90
2018-05-27T22:43:12.616Z,99.90
2018-05-27T22:45:39.484Z,99.90
2018-05-27T22:48:07.160Z,99.90
2018-05-27T22:50:34.099Z,99.90
2018-05-27T22:53:01.726Z,99.90
2018-05-27T22:55:28.741Z,99.90
2018-05-27T22:57:55.601Z,99.90
2018-05-27T23:00:22.572Z,99.90
2018-05-27T23:02:49.539Z,99.90
2018-05-27T23:05:17.172Z,99.90
2018-05-27T23:07:44.116Z,99.90
2018-05-27T23:10:10.986Z,99.90
2018-05-27T23:12:38.590Z,99.90
2018-05-27T23:15:05.528Z,99.90
2018-05-27T23:17:32.455Z,99.90
2018-05-27T23:20:00.121Z,99.90
2018-05-27T23:22:27.020Z,99.90
2018-05-27T23:24:53.889Z,99.90
2018-05-27T23:27:21.568Z,99.90
2018-05-27T23:29:50.605Z,99.90
2018-05-27T23:32:17.540Z,99.90
2018-05-27T23:34:44.525Z,99.90
2018-05-27T23:37:11.469Z,99.90
2018-05-27T23:39:38.421Z,99.90
2018-05-27T23:42:05.390Z,99.90
2018-05-27T23:44:32.985Z,99.90
2018-05-27T23:46:59.853Z,99.90
2018-05-27T23:49:26.852Z,99.90
2018-05-27T23:51:54.472Z,99.90
2018-05-27T23:54:21.396Z,99.90
2018-05-27T23:56:48.261Z,99.90
2018-05-27T23:59:15.177Z,99.90
